createdAt,value
2022-11-15T00:00:58.944Z,3.37
2022-11-15T00:11:05.635Z,3.38
2022-11-15T00:21:14.820Z,3.38
2022-11-15T00:31:20.555Z,3.29
2022-11-15T00:41:26.214Z,3.21
2022-11-15T00:51:31.858Z,3.18
2022-11-15T01:01:38.011Z,3.13
2022-11-15T01:11:44.010Z,3.07
2022-11-15T01:21:52.495Z,2.99
2022-11-15T01:31:58.384Z,2.97
2022-11-15T01:42:04.603Z,2.95
2022-11-15T01:52:15.322Z,2.96
2022-11-15T02:02:21.208Z,2.97
2022-11-15T02:12:27.428Z,2.98
2022-11-15T02:22:46.491Z,2.96
2022-11-15T02:32:59.351Z,2.94
2022-11-15T02:43:28.363Z,2.93
2022-11-15T02:53:35.079Z,2.96
2022-11-15T03:03:58.521Z,2.98
2022-11-15T03:14:10.658Z,3.00
2022-11-15T03:24:25.642Z,3.03
2022-11-15T03:34:34.345Z,3.02
2022-11-15T03:44:48.665Z,3.03
2022-11-15T03:54:57.326Z,2.99
2022-11-15T04:05:03.384Z,2.99
2022-11-15T04:15:12.437Z,2.96
2022-11-15T04:25:22.887Z,2.94
2022-11-15T04:35:29.123Z,2.90
2022-11-15T04:45:35.105Z,2.92
2022-11-15T04:55:40.810Z,2.92
2022-11-15T05:05:46.546Z,2.90
2022-11-15T05:15:52.179Z,2.87
2022-11-15T05:26:07.907Z,2.89
2022-11-15T05:36:19.911Z,2.91
2022-11-15T05:46:25.657Z,2.93
2022-11-15T05:56:32.335Z,2.91
2022-11-15T06:06:38.210Z,2.88
2022-11-15T06:16:43.899Z,2.88
2022-11-15T06:26:49.474Z,2.91
2022-11-15T06:36:55.063Z,2.93
2022-11-15T06:47:00.578Z,3.02
2022-11-15T06:57:07.505Z,3.14
2022-11-15T07:07:13.135Z,3.23
2022-11-15T07:17:18.707Z,3.37
2022-11-15T07:27:24.345Z,3.62
2022-11-15T07:37:30.175Z,4.01
2022-11-15T07:47:35.964Z,4.35
2022-11-15T07:57:41.718Z,4.84
2022-11-15T08:07:47.371Z,5.89
2022-11-15T08:17:57.444Z,7.46
2022-11-15T08:28:04.545Z,9.26
2022-11-15T08:38:10.213Z,11.68
2022-11-15T08:48:15.825Z,14.83
2022-11-15T08:58:21.531Z,17.40
2022-11-15T09:18:54.318Z,19.98
2022-11-15T09:29:00.149Z,18.13
2022-11-15T09:39:05.827Z,15.13
2022-11-15T09:49:15.506Z,13.25
2022-11-15T09:59:33.903Z,12.07
2022-11-15T10:09:45.951Z,11.17
2022-11-15T10:20:05.276Z,10.55
2022-11-15T10:30:17.114Z,10.09
2022-11-15T10:40:25.402Z,9.70
2022-11-15T10:50:34.624Z,9.46
2022-11-15T11:00:41.229Z,9.39
2022-11-15T11:11:02.044Z,9.38
2022-11-15T11:21:16.519Z,9.34
2022-11-15T11:31:34.528Z,9.35
2022-11-15T11:41:51.471Z,9.37
2022-11-15T11:52:02.747Z,9.40
2022-11-15T12:02:18.434Z,9.46
2022-11-15T12:12:29.801Z,9.48
2022-11-15T12:22:43.916Z,9.48
2022-11-15T12:32:59.199Z,9.50
2022-11-15T12:43:19.896Z,9.54
2022-11-15T12:53:33.885Z,9.54
2022-11-15T13:04:14.590Z,9.48
2022-11-15T13:14:57.474Z,9.43
2022-11-15T13:25:04.567Z,9.39
2022-11-15T13:35:10.563Z,9.33
2022-11-15T13:45:19.236Z,9.24
2022-11-15T13:55:27.807Z,9.12
2022-11-15T14:05:33.791Z,8.93
2022-11-15T14:15:41.455Z,8.69
2022-11-15T14:25:56.336Z,8.44
2022-11-15T14:36:08.093Z,8.16
2022-11-15T14:46:13.737Z,7.84
2022-11-15T14:56:19.462Z,7.50
2022-11-15T15:06:25.298Z,7.10
2022-11-15T15:16:30.885Z,6.76
2022-11-15T15:26:37.613Z,6.42
2022-11-15T15:36:43.252Z,6.04
2022-11-15T15:46:48.947Z,5.69
2022-11-15T15:56:56.337Z,5.48
2022-11-15T16:07:04.027Z,5.18
2022-11-15T16:17:12.415Z,4.94
2022-11-15T16:27:20.572Z,4.67
2022-11-15T16:37:26.644Z,4.50
2022-11-15T16:47:32.402Z,4.48
2022-11-15T16:57:38.350Z,4.48
2022-11-15T17:07:45.673Z,4.34
2022-11-15T17:17:55.809Z,4.21
2022-11-15T17:28:01.432Z,4.09
2022-11-15T17:38:07.254Z,3.99
2022-11-15T17:48:12.831Z,3.79
2022-11-15T17:58:18.761Z,3.61
2022-11-15T18:08:24.323Z,3.60
2022-11-15T18:18:30.483Z,3.69
2022-11-15T18:28:38.649Z,3.81
2022-11-15T18:38:44.274Z,3.85
2022-11-15T18:48:51.723Z,3.73
2022-11-15T18:58:56.904Z,3.68
2022-11-15T19:09:02.854Z,3.61
2022-11-15T19:19:12.480Z,3.59
2022-11-15T19:29:18.373Z,3.57
2022-11-15T19:39:24.491Z,3.54
2022-11-15T19:49:30.276Z,3.56
2022-11-15T19:59:36.029Z,3.48
2022-11-15T20:09:41.981Z,3.36
2022-11-15T20:19:47.858Z,3.32
2022-11-15T20:29:54.650Z,3.27
2022-11-15T20:40:00.332Z,3.26
2022-11-15T20:50:35.460Z,3.30
2022-11-15T21:00:32.524Z,3.31
2022-11-15T21:10:56.529Z,3.40
2022-11-15T21:21:06.760Z,3.49
2022-11-15T21:31:12.526Z,3.59
2022-11-15T21:41:18.281Z,3.64
2022-11-15T21:51:24.786Z,3.68
2022-11-15T22:01:56.994Z,3.72
2022-11-15T22:12:02.906Z,3.75
2022-11-15T22:22:08.814Z,3.81
2022-11-15T22:32:14.873Z,3.86
2022-11-15T22:42:23.739Z,3.93
2022-11-15T22:52:30.320Z,3.90
2022-11-15T23:02:36.349Z,3.85
2022-11-15T23:12:59.736Z,3.83
2022-11-15T23:23:05.757Z,3.79
2022-11-15T23:33:33.394Z,3.76
2022-11-15T23:43:39.252Z,3.72
2022-11-15T23:53:45.405Z,3.66
